sensor_id;sensor_type;location;lat;lon;timestamp;P1;durP1;ratioP1;P2;durP2;ratioP2
77870;SDS011;67067;46.850;7.578;2023-03-08T00:00:15;15.80;;;7.20;;
77870;SDS011;67067;46.850;7.578;2023-03-08T00:01:18;16.55;;;7.30;;
77870;SDS011;67067;46.850;7.578;2023-03-08T00:02:21;18.33;;;7.95;;
77870;SDS011;67067;46.850;7.578;2023-03-08T00:03:22;18.23;;;8.40;;
77870;SDS011;67067;46.850;7.578;2023-03-08T00:04:23;19.13;;;8.37;;
77870;SDS011;67067;46.850;7.578;2023-03-08T00:05:23;15.97;;;7.63;;
77870;SDS011;67067;46.850;7.578;2023-03-08T00:06:24;12.80;;;6.70;;
77870;SDS011;67067;46.850;7.578;2023-03-08T00:07:26;17.10;;;7.68;;
77870;SDS011;67067;46.850;7.578;2023-03-08T00:08:26;15.13;;;7.77;;
77870;SDS011;67067;46.850;7.578;2023-03-08T00:09:27;14.70;;;6.97;;
77870;SDS011;67067;46.850;7.578;2023-03-08T00:10:27;17.73;;;8.23;;
77870;SDS011;67067;46.850;7.578;2023-03-08T00:11:28;19.57;;;8.20;;
77870;SDS011;67067;46.850;7.578;2023-03-08T00:12:29;18.67;;;8.52;;
77870;SDS011;67067;46.850;7.578;2023-03-08T00:13:31;15.37;;;7.40;;
77870;SDS011;67067;46.850;7.578;2023-03-08T00:14:32;17.23;;;7.13;;
77870;SDS011;67067;46.850;7.578;2023-03-08T00:15:33;16.30;;;7.73;;
77870;SDS011;67067;46.850;7.578;2023-03-08T00:16:35;18.85;;;7.95;;
77870;SDS011;67067;46.850;7.578;2023-03-08T00:17:36;14.37;;;7.57;;
77870;SDS011;67067;46.850;7.578;2023-03-08T00:18:37;17.98;;;7.50;;
77870;SDS011;67067;46.850;7.578;2023-03-08T00:19:37;13.90;;;7.27;;
77870;SDS011;67067;46.850;7.578;2023-03-08T00:20:38;17.67;;;8.57;;
77870;SDS011;67067;46.850;7.578;2023-03-08T00:21:38;13.17;;;6.90;;
77870;SDS011;67067;46.850;7.578;2023-03-08T00:22:39;13.93;;;7.00;;
77870;SDS011;67067;46.850;7.578;2023-03-08T00:24:41;16.25;;;7.07;;
77870;SDS011;67067;46.850;7.578;2023-03-08T00:25:42;17.20;;;7.80;;
77870;SDS011;67067;46.850;7.578;2023-03-08T00:26:42;15.47;;;6.80;;
77870;SDS011;67067;46.850;7.578;2023-03-08T00:28:45;12.88;;;6.72;;
77870;SDS011;67067;46.850;7.578;2023-03-08T00:29:46;16.67;;;7.50;;
77870;SDS011;67067;46.850;7.578;2023-03-08T00:31:57;15.88;;;7.30;;
77870;SDS011;67067;46.850;7.578;2023-03-08T00:33:00;17.33;;;7.93;;
77870;SDS011;67067;46.850;7.578;2023-03-08T00:34:00;15.80;;;7.13;;
77870;SDS011;67067;46.850;7.578;2023-03-08T00:35:01;15.23;;;7.20;;
77870;SDS011;67067;46.850;7.578;2023-03-08T00:37:06;18.10;;;7.22;;
77870;SDS011;67067;46.850;7.578;2023-03-08T00:38:07;19.50;;;8.37;;
77870;SDS011;67067;46.850;7.578;2023-03-08T00:39:08;16.10;;;7.90;;
77870;SDS011;67067;46.850;7.578;2023-03-08T00:40:10;17.27;;;8.52;;
77870;SDS011;67067;46.850;7.578;2023-03-08T00:41:11;14.10;;;7.20;;
77870;SDS011;67067;46.850;7.578;2023-03-08T00:42:14;17.05;;;7.68;;
77870;SDS011;67067;46.850;7.578;2023-03-08T00:43:17;16.15;;;7.38;;
77870;SDS011;67067;46.850;7.578;2023-03-08T00:44:17;14.77;;;7.03;;
77870;SDS011;67067;46.850;7.578;2023-03-08T00:45:18;16.20;;;7.57;;
77870;SDS011;67067;46.850;7.578;2023-03-08T00:46:18;17.03;;;7.50;;
77870;SDS011;67067;46.850;7.578;2023-03-08T00:47:19;15.17;;;7.37;;
77870;SDS011;67067;46.850;7.578;2023-03-08T00:48:19;17.50;;;8.13;;
77870;SDS011;67067;46.850;7.578;2023-03-08T00:49:20;18.52;;;7.50;;
77870;SDS011;67067;46.850;7.578;2023-03-08T00:50:21;14.70;;;7.55;;
77870;SDS011;67067;46.850;7.578;2023-03-08T00:51:22;14.10;;;7.03;;
77870;SDS011;67067;46.850;7.578;2023-03-08T00:52:22;15.63;;;7.60;;
77870;SDS011;67067;46.850;7.578;2023-03-08T00:53:25;14.27;;;7.28;;
77870;SDS011;67067;46.850;7.578;2023-03-08T00:54:26;15.03;;;7.03;;
77870;SDS011;67067;46.850;7.578;2023-03-08T00:55:26;16.43;;;7.90;;
77870;SDS011;67067;46.850;7.578;2023-03-08T00:56:27;16.53;;;7.43;;
77870;SDS011;67067;46.850;7.578;2023-03-08T00:57:27;16.93;;;7.50;;
77870;SDS011;67067;46.850;7.578;2023-03-08T00:58:30;14.73;;;7.43;;
77870;SDS011;67067;46.850;7.578;2023-03-08T00:59:30;16.80;;;7.47;;
77870;SDS011;67067;46.850;7.578;2023-03-08T01:00:32;14.48;;;7.53;;
77870;SDS011;67067;46.850;7.578;2023-03-08T01:01:34;15.38;;;7.82;;
77870;SDS011;67067;46.850;7.578;2023-03-08T01:02:35;14.37;;;7.07;;
77870;SDS011;67067;46.850;7.578;2023-03-08T01:03:35;13.57;;;7.47;;
77870;SDS011;67067;46.850;7.578;2023-03-08T01:04:36;16.13;;;7.80;;
77870;SDS011;67067;46.850;7.578;2023-03-08T01:05:42;17.60;;;8.27;;
77870;SDS011;67067;46.850;7.578;2023-03-08T01:06:46;15.95;;;7.53;;
77870;SDS011;67067;46.850;7.578;2023-03-08T01:07:46;16.37;;;7.60;;
77870;SDS011;67067;46.850;7.578;2023-03-08T01:08:47;17.97;;;8.03;;
77870;SDS011;67067;46.850;7.578;2023-03-08T01:09:47;15.57;;;7.60;;
77870;SDS011;67067;46.850;7.578;2023-03-08T01:10:49;15.73;;;8.40;;
77870;SDS011;67067;46.850;7.578;2023-03-08T01:11:56;17.75;;;7.90;;
77870;SDS011;67067;46.850;7.578;2023-03-08T01:12:56;16.50;;;7.77;;
77870;SDS011;67067;46.850;7.578;2023-03-08T01:13:57;14.83;;;7.43;;
77870;SDS011;67067;46.850;7.578;2023-03-08T01:15:00;15.02;;;7.57;;
77870;SDS011;67067;46.850;7.578;2023-03-08T01:16:01;16.35;;;7.70;;
77870;SDS011;67067;46.850;7.578;2023-03-08T01:17:02;18.03;;;7.33;;
77870;SDS011;67067;46.850;7.578;2023-03-08T01:18:03;18.43;;;7.63;;
77870;SDS011;67067;46.850;7.578;2023-03-08T01:19:05;15.38;;;7.53;;
77870;SDS011;67067;46.850;7.578;2023-03-08T01:20:05;17.47;;;8.10;;
77870;SDS011;67067;46.850;7.578;2023-03-08T01:21:06;18.83;;;7.82;;
77870;SDS011;67067;46.850;7.578;2023-03-08T01:22:07;21.37;;;8.27;;
77870;SDS011;67067;46.850;7.578;2023-03-08T01:23:08;16.53;;;8.10;;
77870;SDS011;67067;46.850;7.578;2023-03-08T01:24:10;20.45;;;9.23;;
77870;SDS011;67067;46.850;7.578;2023-03-08T01:25:11;25.87;;;10.63;;
77870;SDS011;67067;46.850;7.578;2023-03-08T01:26:13;23.30;;;10.00;;
77870;SDS011;67067;46.850;7.578;2023-03-08T01:27:15;20.95;;;9.20;;
77870;SDS011;67067;46.850;7.578;2023-03-08T01:28:18;20.02;;;8.48;;
77870;SDS011;67067;46.850;7.578;2023-03-08T01:29:18;19.87;;;8.60;;
77870;SDS011;67067;46.850;7.578;2023-03-08T01:30:19;15.80;;;7.87;;
77870;SDS011;67067;46.850;7.578;2023-03-08T01:31:21;18.50;;;7.78;;
77870;SDS011;67067;46.850;7.578;2023-03-08T01:32:25;16.08;;;7.43;;
77870;SDS011;67067;46.850;7.578;2023-03-08T01:33:26;13.32;;;7.53;;
77870;SDS011;67067;46.850;7.578;2023-03-08T01:34:27;14.03;;;7.20;;
77870;SDS011;67067;46.850;7.578;2023-03-08T01:35:28;14.80;;;7.65;;
77870;SDS011;67067;46.850;7.578;2023-03-08T01:36:28;13.60;;;7.20;;
77870;SDS011;67067;46.850;7.578;2023-03-08T01:37:29;16.20;;;7.60;;
77870;SDS011;67067;46.850;7.578;2023-03-08T01:39:32;11.48;;;6.53;;
77870;SDS011;67067;46.850;7.578;2023-03-08T01:40:32;17.47;;;7.47;;
77870;SDS011;67067;46.850;7.578;2023-03-08T01:41:33;11.53;;;6.77;;
77870;SDS011;67067;46.850;7.578;2023-03-08T01:42:36;15.82;;;7.07;;
77870;SDS011;67067;46.850;7.578;2023-03-08T01:43:37;14.13;;;7.30;;
77870;SDS011;67067;46.850;7.578;2023-03-08T01:47:00;16.33;;;7.38;;
77870;SDS011;67067;46.850;7.578;2023-03-08T01:48:23;16.42;;;7.70;;
77870;SDS011;67067;46.850;7.578;2023-03-08T01:49:33;15.73;;;7.63;;
77870;SDS011;67067;46.850;7.578;2023-03-08T01:50:38;16.65;;;7.72;;
77870;SDS011;67067;46.850;7.578;2023-03-08T01:51:46;16.38;;;7.00;;
77870;SDS011;67067;46.850;7.578;2023-03-08T01:52:53;19.67;;;7.28;;
77870;SDS011;67067;46.850;7.578;2023-03-08T01:53:57;13.25;;;7.05;;
77870;SDS011;67067;46.850;7.578;2023-03-08T01:55:03;14.27;;;7.07;;
77870;SDS011;67067;46.850;7.578;2023-03-08T01:56:06;13.68;;;7.30;;
77870;SDS011;67067;46.850;7.578;2023-03-08T01:59:01;18.83;;;7.47;;
77870;SDS011;67067;46.850;7.578;2023-03-08T02:00:12;17.77;;;8.07;;
77870;SDS011;67067;46.850;7.578;2023-03-08T02:01:17;14.13;;;7.18;;
77870;SDS011;67067;46.850;7.578;2023-03-08T02:02:21;16.10;;;7.43;;
77870;SDS011;67067;46.850;7.578;2023-03-08T02:03:26;14.80;;;7.45;;
77870;SDS011;67067;46.850;7.578;2023-03-08T02:04:27;17.15;;;7.85;;
77870;SDS011;67067;46.850;7.578;2023-03-08T02:05:29;15.65;;;7.25;;
77870;SDS011;67067;46.850;7.578;2023-03-08T02:06:41;15.35;;;6.88;;
77870;SDS011;67067;46.850;7.578;2023-03-08T02:07:43;15.60;;;7.63;;
77870;SDS011;67067;46.850;7.578;2023-03-08T02:08:46;16.40;;;7.85;;
77870;SDS011;67067;46.850;7.578;2023-03-08T02:09:47;15.20;;;7.10;;
77870;SDS011;67067;46.850;7.578;2023-03-08T02:10:51;15.55;;;7.88;;
77870;SDS011;67067;46.850;7.578;2023-03-08T02:11:52;15.55;;;7.28;;
77870;SDS011;67067;46.850;7.578;2023-03-08T02:12:58;18.10;;;7.95;;
77870;SDS011;67067;46.850;7.578;2023-03-08T02:13:59;20.13;;;7.57;;
77870;SDS011;67067;46.850;7.578;2023-03-08T02:14:59;17.70;;;8.18;;
77870;SDS011;67067;46.850;7.578;2023-03-08T02:16:04;14.35;;;7.07;;
77870;SDS011;67067;46.850;7.578;2023-03-08T02:17:09;17.40;;;7.43;;
77870;SDS011;67067;46.850;7.578;2023-03-08T02:18:11;13.55;;;7.18;;
77870;SDS011;67067;46.850;7.578;2023-03-08T02:19:13;13.50;;;7.00;;
77870;SDS011;67067;46.850;7.578;2023-03-08T02:20:29;16.80;;;7.57;;
77870;SDS011;67067;46.850;7.578;2023-03-08T02:21:31;16.08;;;7.22;;
77870;SDS011;67067;46.850;7.578;2023-03-08T02:22:37;14.10;;;7.18;;
77870;SDS011;67067;46.850;7.578;2023-03-08T02:23:41;13.90;;;6.95;;
77870;SDS011;67067;46.850;7.578;2023-03-08T02:24:42;15.77;;;7.57;;
77870;SDS011;67067;46.850;7.578;2023-03-08T02:25:57;15.70;;;7.40;;
77870;SDS011;67067;46.850;7.578;2023-03-08T02:27:03;17.13;;;7.47;;
77870;SDS011;67067;46.850;7.578;2023-03-08T02:28:10;11.38;;;6.75;;
77870;SDS011;67067;46.850;7.578;2023-03-08T02:29:11;15.57;;;6.93;;
77870;SDS011;67067;46.850;7.578;2023-03-08T02:30:12;13.93;;;6.90;;
77870;SDS011;67067;46.850;7.578;2023-03-08T02:31:14;14.75;;;7.35;;
77870;SDS011;67067;46.850;7.578;2023-03-08T02:32:18;16.48;;;7.47;;
77870;SDS011;67067;46.850;7.578;2023-03-08T02:33:19;15.07;;;6.85;;
77870;SDS011;67067;46.850;7.578;2023-03-08T02:34:21;16.13;;;8.07;;
77870;SDS011;67067;46.850;7.578;2023-03-08T02:35:37;17.42;;;7.70;;
77870;SDS011;67067;46.850;7.578;2023-03-08T02:36:41;15.98;;;7.15;;
77870;SDS011;67067;46.850;7.578;2023-03-08T02:37:42;15.63;;;7.57;;
77870;SDS011;67067;46.850;7.578;2023-03-08T02:38:42;16.97;;;7.47;;
77870;SDS011;67067;46.850;7.578;2023-03-08T02:39:43;15.83;;;7.67;;
77870;SDS011;67067;46.850;7.578;2023-03-08T02:40:43;18.90;;;7.80;;
77870;SDS011;67067;46.850;7.578;2023-03-08T02:41:50;18.30;;;8.40;;
77870;SDS011;67067;46.850;7.578;2023-03-08T02:42:53;20.75;;;8.18;;
77870;SDS011;67067;46.850;7.578;2023-03-08T02:43:55;17.95;;;8.15;;
77870;SDS011;67067;46.850;7.578;2023-03-08T02:44:56;17.80;;;8.07;;
77870;SDS011;67067;46.850;7.578;2023-03-08T02:45:58;19.95;;;8.32;;
77870;SDS011;67067;46.850;7.578;2023-03-08T02:46:59;16.80;;;8.10;;
77870;SDS011;67067;46.850;7.578;2023-03-08T02:48:00;15.83;;;8.13;;
77870;SDS011;67067;46.850;7.578;2023-03-08T02:49:02;17.67;;;8.05;;
77870;SDS011;67067;46.850;7.578;2023-03-08T02:50:03;12.90;;;6.37;;
77870;SDS011;67067;46.850;7.578;2023-03-08T02:51:05;15.02;;;7.15;;
77870;SDS011;67067;46.850;7.578;2023-03-08T02:52:08;13.27;;;6.85;;
77870;SDS011;67067;46.850;7.578;2023-03-08T02:53:08;13.13;;;6.73;;
77870;SDS011;67067;46.850;7.578;2023-03-08T02:54:09;12.35;;;6.22;;
77870;SDS011;67067;46.850;7.578;2023-03-08T02:55:10;12.87;;;6.83;;
77870;SDS011;67067;46.850;7.578;2023-03-08T02:56:11;13.85;;;7.15;;
77870;SDS011;67067;46.850;7.578;2023-03-08T02:57:11;13.00;;;6.70;;
77870;SDS011;67067;46.850;7.578;2023-03-08T02:58:12;14.23;;;7.60;;
77870;SDS011;67067;46.850;7.578;2023-03-08T02:59:15;14.65;;;6.90;;
77870;SDS011;67067;46.850;7.578;2023-03-08T03:00:18;13.30;;;7.20;;
77870;SDS011;67067;46.850;7.578;2023-03-08T03:01:19;18.10;;;7.70;;
77870;SDS011;67067;46.850;7.578;2023-03-08T03:02:19;14.83;;;6.70;;
77870;SDS011;67067;46.850;7.578;2023-03-08T03:03:20;14.73;;;7.37;;
77870;SDS011;67067;46.850;7.578;2023-03-08T03:04:24;20.23;;;7.47;;
77870;SDS011;67067;46.850;7.578;2023-03-08T03:05:30;14.70;;;7.30;;
77870;SDS011;67067;46.850;7.578;2023-03-08T03:06:35;14.65;;;7.80;;
77870;SDS011;67067;46.850;7.578;2023-03-08T03:07:36;31.43;;;17.13;;
77870;SDS011;67067;46.850;7.578;2023-03-08T03:08:38;26.02;;;14.48;;
77870;SDS011;67067;46.850;7.578;2023-03-08T03:09:39;25.40;;;13.40;;
77870;SDS011;67067;46.850;7.578;2023-03-08T03:10:39;23.10;;;12.40;;
77870;SDS011;67067;46.850;7.578;2023-03-08T03:11:40;19.67;;;9.82;;
77870;SDS011;67067;46.850;7.578;2023-03-08T03:12:41;20.40;;;10.13;;
77870;SDS011;67067;46.850;7.578;2023-03-08T03:13:45;18.10;;;7.95;;
77870;SDS011;67067;46.850;7.578;2023-03-08T03:14:49;18.15;;;9.30;;
77870;SDS011;67067;46.850;7.578;2023-03-08T03:15:52;17.10;;;8.25;;
77870;SDS011;67067;46.850;7.578;2023-03-08T03:16:55;17.88;;;8.18;;
77870;SDS011;67067;46.850;7.578;2023-03-08T03:17:56;13.93;;;6.73;;
77870;SDS011;67067;46.850;7.578;2023-03-08T03:18:57;15.07;;;7.35;;
77870;SDS011;67067;46.850;7.578;2023-03-08T03:19:58;12.87;;;7.10;;
77870;SDS011;67067;46.850;7.578;2023-03-08T03:21:05;17.55;;;7.40;;
77870;SDS011;67067;46.850;7.578;2023-03-08T03:22:08;14.90;;;7.60;;
77870;SDS011;67067;46.850;7.578;2023-03-08T03:23:08;15.50;;;7.27;;
77870;SDS011;67067;46.850;7.578;2023-03-08T03:24:15;16.10;;;7.60;;
77870;SDS011;67067;46.850;7.578;2023-03-08T03:25:25;17.98;;;7.57;;
77870;SDS011;67067;46.850;7.578;2023-03-08T03:26:26;13.90;;;7.47;;
77870;SDS011;67067;46.850;7.578;2023-03-08T03:27:30;14.93;;;6.93;;
77870;SDS011;67067;46.850;7.578;2023-03-08T03:28:33;13.05;;;6.40;;
77870;SDS011;67067;46.850;7.578;2023-03-08T03:29:38;15.50;;;6.82;;
77870;SDS011;67067;46.850;7.578;2023-03-08T03:30:46;11.88;;;6.40;;
77870;SDS011;67067;46.850;7.578;2023-03-08T03:31:48;12.13;;;6.82;;
77870;SDS011;67067;46.850;7.578;2023-03-08T03:32:50;14.38;;;7.28;;
77870;SDS011;67067;46.850;7.578;2023-03-08T03:33:56;14.27;;;7.28;;
77870;SDS011;67067;46.850;7.578;2023-03-08T03:34:59;15.80;;;7.38;;
77870;SDS011;67067;46.850;7.578;2023-03-08T03:36:02;16.17;;;7.50;;
77870;SDS011;67067;46.850;7.578;2023-03-08T03:37:07;15.02;;;7.30;;
77870;SDS011;67067;46.850;7.578;2023-03-08T03:38:08;14.30;;;7.57;;
77870;SDS011;67067;46.850;7.578;2023-03-08T03:39:09;13.20;;;7.30;;
77870;SDS011;67067;46.850;7.578;2023-03-08T03:40:11;13.82;;;7.20;;
77870;SDS011;67067;46.850;7.578;2023-03-08T03:41:15;14.68;;;7.15;;
77870;SDS011;67067;46.850;7.578;2023-03-08T03:42:17;16.63;;;7.13;;
77870;SDS011;67067;46.850;7.578;2023-03-08T03:43:32;13.68;;;6.88;;
77870;SDS011;67067;46.850;7.578;2023-03-08T03:44:33;15.38;;;7.20;;
77870;SDS011;67067;46.850;7.578;2023-03-08T03:45:35;20.15;;;8.05;;
77870;SDS011;67067;46.850;7.578;2023-03-08T03:46:36;16.47;;;7.57;;
77870;SDS011;67067;46.850;7.578;2023-03-08T03:47:39;15.68;;;7.32;;
77870;SDS011;67067;46.850;7.578;2023-03-08T03:48:42;18.42;;;8.10;;
77870;SDS011;67067;46.850;7.578;2023-03-08T03:49:43;17.33;;;7.90;;
77870;SDS011;67067;46.850;7.578;2023-03-08T03:50:44;17.40;;;8.33;;
77870;SDS011;67067;46.850;7.578;2023-03-08T03:51:54;17.02;;;8.55;;
77870;SDS011;67067;46.850;7.578;2023-03-08T03:53:08;15.93;;;7.80;;
77870;SDS011;67067;46.850;7.578;2023-03-08T03:54:09;15.60;;;7.80;;
77870;SDS011;67067;46.850;7.578;2023-03-08T03:55:11;16.00;;;7.85;;
77870;SDS011;67067;46.850;7.578;2023-03-08T03:56:24;15.82;;;8.43;;
77870;SDS011;67067;46.850;7.578;2023-03-08T03:57:28;15.93;;;7.85;;
77870;SDS011;67067;46.850;7.578;2023-03-08T03:58:28;15.83;;;7.13;;
77870;SDS011;67067;46.850;7.578;2023-03-08T03:59:29;14.02;;;7.38;;
77870;SDS011;67067;46.850;7.578;2023-03-08T04:00:30;14.65;;;7.25;;
77870;SDS011;67067;46.850;7.578;2023-03-08T04:01:47;16.90;;;7.95;;
77870;SDS011;67067;46.850;7.578;2023-03-08T04:02:56;16.55;;;7.72;;
77870;SDS011;67067;46.850;7.578;2023-03-08T04:04:00;14.98;;;7.32;;
77870;SDS011;67067;46.850;7.578;2023-03-08T04:05:06;17.05;;;7.93;;
77870;SDS011;67067;46.850;7.578;2023-03-08T04:06:15;19.55;;;7.93;;
77870;SDS011;67067;46.850;7.578;2023-03-08T04:07:18;15.65;;;7.88;;
77870;SDS011;67067;46.850;7.578;2023-03-08T04:08:27;18.63;;;8.20;;
77870;SDS011;67067;46.850;7.578;2023-03-08T04:09:27;15.87;;;7.77;;
77870;SDS011;67067;46.850;7.578;2023-03-08T04:10:38;15.20;;;7.70;;
77870;SDS011;67067;46.850;7.578;2023-03-08T04:11:40;16.23;;;8.18;;
77870;SDS011;67067;46.850;7.578;2023-03-08T04:12:47;15.27;;;7.30;;
77870;SDS011;67067;46.850;7.578;2023-03-08T04:13:50;16.27;;;7.55;;
77870;SDS011;67067;46.850;7.578;2023-03-08T04:14:54;18.30;;;7.75;;
77870;SDS011;67067;46.850;7.578;2023-03-08T04:15:57;15.70;;;7.75;;
77870;SDS011;67067;46.850;7.578;2023-03-08T04:16:57;16.83;;;8.07;;
77870;SDS011;67067;46.850;7.578;2023-03-08T04:18:04;15.95;;;8.18;;
77870;SDS011;67067;46.850;7.578;2023-03-08T04:19:10;16.45;;;7.43;;
77870;SDS011;67067;46.850;7.578;2023-03-08T04:20:14;15.63;;;7.82;;
77870;SDS011;67067;46.850;7.578;2023-03-08T04:21:20;14.65;;;7.82;;
77870;SDS011;67067;46.850;7.578;2023-03-08T04:22:24;17.50;;;8.02;;
77870;SDS011;67067;46.850;7.578;2023-03-08T04:23:27;18.65;;;8.13;;
77870;SDS011;67067;46.850;7.578;2023-03-08T04:24:30;15.07;;;7.60;;
77870;SDS011;67067;46.850;7.578;2023-03-08T04:25:35;14.70;;;7.90;;
77870;SDS011;67067;46.850;7.578;2023-03-08T04:26:37;15.43;;;7.20;;
77870;SDS011;67067;46.850;7.578;2023-03-08T04:27:37;16.00;;;7.80;;
77870;SDS011;67067;46.850;7.578;2023-03-08T04:28:38;16.20;;;8.03;;
77870;SDS011;67067;46.850;7.578;2023-03-08T04:29:39;14.77;;;7.32;;
77870;SDS011;67067;46.850;7.578;2023-03-08T04:30:40;15.70;;;7.67;;
77870;SDS011;67067;46.850;7.578;2023-03-08T04:31:41;14.53;;;7.57;;
77870;SDS011;67067;46.850;7.578;2023-03-08T04:32:45;15.50;;;7.95;;
77870;SDS011;67067;46.850;7.578;2023-03-08T04:33:46;14.35;;;7.60;;
77870;SDS011;67067;46.850;7.578;2023-03-08T04:34:48;13.48;;;7.22;;
77870;SDS011;67067;46.850;7.578;2023-03-08T04:35:51;14.85;;;7.43;;
77870;SDS011;67067;46.850;7.578;2023-03-08T04:36:55;17.52;;;7.80;;
77870;SDS011;67067;46.850;7.578;2023-03-08T04:37:58;15.43;;;7.55;;
77870;SDS011;67067;46.850;7.578;2023-03-08T04:39:01;18.10;;;8.55;;
77870;SDS011;67067;46.850;7.578;2023-03-08T04:40:02;17.48;;;7.65;;
77870;SDS011;67067;46.850;7.578;2023-03-08T04:41:09;14.82;;;7.60;;
77870;SDS011;67067;46.850;7.578;2023-03-08T04:42:22;15.70;;;7.38;;
77870;SDS011;67067;46.850;7.578;2023-03-08T04:43:24;16.40;;;7.70;;
77870;SDS011;67067;46.850;7.578;2023-03-08T04:44:25;18.05;;;8.02;;
77870;SDS011;67067;46.850;7.578;2023-03-08T04:45:27;20.23;;;8.55;;
77870;SDS011;67067;46.850;7.578;2023-03-08T04:46:31;14.10;;;7.70;;
77870;SDS011;67067;46.850;7.578;2023-03-08T04:47:32;16.52;;;7.80;;
77870;SDS011;67067;46.850;7.578;2023-03-08T04:48:32;14.53;;;7.57;;
77870;SDS011;67067;46.850;7.578;2023-03-08T04:49:33;14.30;;;7.63;;
77870;SDS011;67067;46.850;7.578;2023-03-08T04:50:38;15.23;;;7.68;;
77870;SDS011;67067;46.850;7.578;2023-03-08T04:51:39;14.88;;;7.60;;
77870;SDS011;67067;46.850;7.578;2023-03-08T04:52:43;18.40;;;7.95;;
77870;SDS011;67067;46.850;7.578;2023-03-08T04:53:44;17.90;;;7.97;;
77870;SDS011;67067;46.850;7.578;2023-03-08T04:54:48;17.48;;;8.05;;
77870;SDS011;67067;46.850;7.578;2023-03-08T04:55:56;17.50;;;8.18;;
77870;SDS011;67067;46.850;7.578;2023-03-08T04:56:58;14.48;;;7.35;;
77870;SDS011;67067;46.850;7.578;2023-03-08T04:57:59;15.97;;;7.03;;
77870;SDS011;67067;46.850;7.578;2023-03-08T04:59:02;14.55;;;6.93;;
77870;SDS011;67067;46.850;7.578;2023-03-08T05:00:05;15.73;;;7.95;;
77870;SDS011;67067;46.850;7.578;2023-03-08T05:01:11;14.43;;;7.47;;
77870;SDS011;67067;46.850;7.578;2023-03-08T05:02:15;16.92;;;7.90;;
77870;SDS011;67067;46.850;7.578;2023-03-08T05:03:15;15.63;;;7.25;;
77870;SDS011;67067;46.850;7.578;2023-03-08T05:04:17;16.63;;;7.57;;
77870;SDS011;67067;46.850;7.578;2023-03-08T05:05:17;15.30;;;7.83;;
77870;SDS011;67067;46.850;7.578;2023-03-08T05:06:19;15.95;;;8.10;;
77870;SDS011;67067;46.850;7.578;2023-03-08T05:07:22;14.70;;;7.80;;
77870;SDS011;67067;46.850;7.578;2023-03-08T05:08:26;15.35;;;7.55;;
77870;SDS011;67067;46.850;7.578;2023-03-08T05:09:27;13.63;;;7.47;;
77870;SDS011;67067;46.850;7.578;2023-03-08T05:10:27;15.00;;;7.30;;
77870;SDS011;67067;46.850;7.578;2023-03-08T05:11:29;15.20;;;7.45;;
77870;SDS011;67067;46.850;7.578;2023-03-08T05:12:30;16.73;;;8.07;;
77870;SDS011;67067;46.850;7.578;2023-03-08T05:13:36;14.73;;;7.97;;
77870;SDS011;67067;46.850;7.578;2023-03-08T05:14:41;17.17;;;7.45;;
77870;SDS011;67067;46.850;7.578;2023-03-08T05:15:42;11.70;;;6.72;;
77870;SDS011;67067;46.850;7.578;2023-03-08T05:16:43;14.23;;;7.43;;
77870;SDS011;67067;46.850;7.578;2023-03-08T05:17:44;15.05;;;7.55;;
77870;SDS011;67067;46.850;7.578;2023-03-08T05:18:45;13.77;;;7.07;;
77870;SDS011;67067;46.850;7.578;2023-03-08T05:19:47;14.88;;;7.72;;
77870;SDS011;67067;46.850;7.578;2023-03-08T05:20:52;16.80;;;7.80;;
77870;SDS011;67067;46.850;7.578;2023-03-08T05:22:00;17.13;;;8.00;;
77870;SDS011;67067;46.850;7.578;2023-03-08T05:23:01;16.30;;;8.20;;
77870;SDS011;67067;46.850;7.578;2023-03-08T05:24:10;17.65;;;8.00;;
77870;SDS011;67067;46.850;7.578;2023-03-08T05:25:12;17.88;;;8.18;;
77870;SDS011;67067;46.850;7.578;2023-03-08T05:26:14;15.90;;;7.97;;
77870;SDS011;67067;46.850;7.578;2023-03-08T05:27:16;16.58;;;8.27;;
77870;SDS011;67067;46.850;7.578;2023-03-08T05:28:18;17.33;;;8.48;;
77870;SDS011;67067;46.850;7.578;2023-03-08T05:29:20;17.92;;;8.55;;
77870;SDS011;67067;46.850;7.578;2023-03-08T05:30:20;17.43;;;8.13;;
77870;SDS011;67067;46.850;7.578;2023-03-08T05:31:41;18.55;;;8.43;;
77870;SDS011;67067;46.850;7.578;2023-03-08T05:32:44;16.98;;;8.13;;
77870;SDS011;67067;46.850;7.578;2023-03-08T05:33:45;22.07;;;9.80;;
77870;SDS011;67067;46.850;7.578;2023-03-08T05:34:52;20.67;;;10.20;;
77870;SDS011;67067;46.850;7.578;2023-03-08T05:36:00;29.67;;;12.75;;
77870;SDS011;67067;46.850;7.578;2023-03-08T05:37:01;26.38;;;12.10;;
77870;SDS011;67067;46.850;7.578;2023-03-08T05:38:04;26.40;;;11.82;;
77870;SDS011;67067;46.850;7.578;2023-03-08T05:39:05;24.77;;;11.20;;
77870;SDS011;67067;46.850;7.578;2023-03-08T05:40:21;20.58;;;9.68;;
77870;SDS011;67067;46.850;7.578;2023-03-08T05:41:25;21.52;;;9.45;;
77870;SDS011;67067;46.850;7.578;2023-03-08T05:42:29;20.13;;;9.05;;
77870;SDS011;67067;46.850;7.578;2023-03-08T05:43:31;20.60;;;9.35;;
77870;SDS011;67067;46.850;7.578;2023-03-08T05:44:32;18.38;;;9.07;;
77870;SDS011;67067;46.850;7.578;2023-03-08T05:45:35;19.27;;;8.80;;
77870;SDS011;67067;46.850;7.578;2023-03-08T05:46:36;18.02;;;8.30;;
77870;SDS011;67067;46.850;7.578;2023-03-08T05:47:40;16.67;;;8.38;;
77870;SDS011;67067;46.850;7.578;2023-03-08T05:48:42;17.45;;;8.48;;
77870;SDS011;67067;46.850;7.578;2023-03-08T05:49:47;19.10;;;9.27;;
77870;SDS011;67067;46.850;7.578;2023-03-08T05:50:48;20.83;;;9.75;;
77870;SDS011;67067;46.850;7.578;2023-03-08T05:51:49;22.77;;;10.10;;
77870;SDS011;67067;46.850;7.578;2023-03-08T05:52:50;20.70;;;10.23;;
77870;SDS011;67067;46.850;7.578;2023-03-08T05:53:56;17.85;;;9.30;;
77870;SDS011;67067;46.850;7.578;2023-03-08T05:54:57;19.87;;;9.73;;
77870;SDS011;67067;46.850;7.578;2023-03-08T05:57:09;19.10;;;8.65;;
77870;SDS011;67067;46.850;7.578;2023-03-08T05:58:11;19.05;;;9.05;;
77870;SDS011;67067;46.850;7.578;2023-03-08T05:59:13;17.80;;;8.73;;
77870;SDS011;67067;46.850;7.578;2023-03-08T06:00:15;17.45;;;8.35;;
77870;SDS011;67067;46.850;7.578;2023-03-08T06:02:23;18.02;;;8.85;;
77870;SDS011;67067;46.850;7.578;2023-03-08T06:03:27;20.50;;;9.80;;
77870;SDS011;67067;46.850;7.578;2023-03-08T06:04:27;18.40;;;8.87;;
77870;SDS011;67067;46.850;7.578;2023-03-08T06:05:30;16.98;;;8.18;;
77870;SDS011;67067;46.850;7.578;2023-03-08T06:06:32;16.90;;;8.57;;
77870;SDS011;67067;46.850;7.578;2023-03-08T06:07:34;16.75;;;8.20;;
77870;SDS011;67067;46.850;7.578;2023-03-08T06:08:41;17.67;;;8.60;;
77870;SDS011;67067;46.850;7.578;2023-03-08T06:09:44;17.83;;;8.80;;
77870;SDS011;67067;46.850;7.578;2023-03-08T06:10:48;16.25;;;8.35;;
77870;SDS011;67067;46.850;7.578;2023-03-08T06:11:52;20.73;;;9.30;;
77870;SDS011;67067;46.850;7.578;2023-03-08T06:12:57;16.33;;;8.30;;
77870;SDS011;67067;46.850;7.578;2023-03-08T06:14:00;17.58;;;8.90;;
77870;SDS011;67067;46.850;7.578;2023-03-08T06:15:05;16.33;;;8.10;;
77870;SDS011;67067;46.850;7.578;2023-03-08T06:16:09;17.23;;;8.02;;
77870;SDS011;67067;46.850;7.578;2023-03-08T06:17:11;18.38;;;8.85;;
77870;SDS011;67067;46.850;7.578;2023-03-08T06:18:16;17.27;;;9.13;;
77870;SDS011;67067;46.850;7.578;2023-03-08T06:19:19;16.58;;;8.18;;
77870;SDS011;67067;46.850;7.578;2023-03-08T06:20:20;15.73;;;8.52;;
77870;SDS011;67067;46.850;7.578;2023-03-08T06:21:24;16.60;;;8.32;;
77870;SDS011;67067;46.850;7.578;2023-03-08T06:22:31;17.10;;;8.60;;
77870;SDS011;67067;46.850;7.578;2023-03-08T06:23:34;19.35;;;8.23;;
77870;SDS011;67067;46.850;7.578;2023-03-08T06:24:36;14.90;;;7.90;;